Terminal Aerodrome Forecast
Issued by NWS

Home | Current Version | Previous Version | Text Only | Print | Product List | Glossary On
Versions: 1 2 3 4 5 6 7 8 9 10 11 12 13 14 15 16 17 18 19 20 21 22 23 24 25 26
000
FTAK31 PANC 051459 AAA
TAFADU
TAF AMD
PADU 051459Z 0515/0612 17011KT P6SM VCSH SCT025 OVC080
     FM051800 16012G20KT P6SM -SHRA BKN018 OVC025
     FM060300 14015KT P6SM -SHRA BKN015 OVC022=

USA.gov is the U.S. government's official web portal to all federal, state and local government web resources and services.